sensor_id;sensor_type;location;lat;lon;timestamp;noise_LAeq;noise_LA_min;noise_LA_max;noise_LA01;noise_LA95
76382;Laerm;65202;52.520;10.528;2023-11-18T00:00:04;33.91;30.54;43.37;;
76382;Laerm;65202;52.520;10.528;2023-11-18T00:02:38;33.82;30.40;43.34;;
76382;Laerm;65202;52.520;10.528;2023-11-18T00:05:06;34.09;30.56;43.03;;
76382;Laerm;65202;52.520;10.528;2023-11-18T00:07:34;34.51;30.53;56.64;;
76382;Laerm;65202;52.520;10.528;2023-11-18T00:10:03;33.99;30.52;45.70;;
76382;Laerm;65202;52.520;10.528;2023-11-18T00:12:35;34.26;30.82;42.48;;
76382;Laerm;65202;52.520;10.528;2023-11-18T00:15:05;34.62;30.68;43.17;;
76382;Laerm;65202;52.520;10.528;2023-11-18T00:17:36;33.97;30.39;48.34;;
76382;Laerm;65202;52.520;10.528;2023-11-18T00:20:04;38.45;30.63;59.97;;
76382;Laerm;65202;52.520;10.528;2023-11-18T00:22:39;34.11;30.63;42.65;;
76382;Laerm;65202;52.520;10.528;2023-11-18T00:25:09;40.60;31.20;58.38;;
76382;Laerm;65202;52.520;10.528;2023-11-18T00:27:37;36.55;30.53;54.77;;
76382;Laerm;65202;52.520;10.528;2023-11-18T00:30:06;34.85;30.79;44.89;;
76382;Laerm;65202;52.520;10.528;2023-11-18T00:32:40;34.04;30.67;43.62;;
76382;Laerm;65202;52.520;10.528;2023-11-18T00:35:07;34.30;30.52;42.44;;
76382;Laerm;65202;52.520;10.528;2023-11-18T00:37:37;33.80;30.45;42.70;;
76382;Laerm;65202;52.520;10.528;2023-11-18T00:40:07;34.03;30.57;43.59;;
76382;Laerm;65202;52.520;10.528;2023-11-18T00:42:35;33.72;30.35;42.40;;
76382;Laerm;65202;52.520;10.528;2023-11-18T00:45:03;33.78;30.41;41.63;;
76382;Laerm;65202;52.520;10.528;2023-11-18T00:47:31;33.98;30.51;41.67;;
76382;Laerm;65202;52.520;10.528;2023-11-18T00:49:58;34.25;30.67;42.80;;
76382;Laerm;65202;52.520;10.528;2023-11-18T00:52:29;34.07;30.55;42.85;;
76382;Laerm;65202;52.520;10.528;2023-11-18T00:54:56;33.89;30.40;42.25;;
76382;Laerm;65202;52.520;10.528;2023-11-18T00:57:23;34.09;30.15;41.27;;
76382;Laerm;65202;52.520;10.528;2023-11-18T00:59:50;34.28;30.56;42.91;;
76382;Laerm;65202;52.520;10.528;2023-11-18T01:02:17;34.03;30.24;41.65;;
76382;Laerm;65202;52.520;10.528;2023-11-18T01:04:45;33.84;30.57;41.88;;
76382;Laerm;65202;52.520;10.528;2023-11-18T01:07:12;37.24;30.43;46.98;;
76382;Laerm;65202;52.520;10.528;2023-11-18T01:09:40;34.75;30.62;43.35;;
76382;Laerm;65202;52.520;10.528;2023-11-18T01:12:07;40.40;30.56;60.89;;
76382;Laerm;65202;52.520;10.528;2023-11-18T01:14:37;37.07;30.42;52.31;;
76382;Laerm;65202;52.520;10.528;2023-11-18T01:17:06;33.75;30.54;42.35;;
76382;Laerm;65202;52.520;10.528;2023-11-18T01:19:33;36.37;30.61;51.56;;
76382;Laerm;65202;52.520;10.528;2023-11-18T01:22:01;33.94;30.23;43.24;;
76382;Laerm;65202;52.520;10.528;2023-11-18T01:24:33;33.66;30.32;42.64;;
76382;Laerm;65202;52.520;10.528;2023-11-18T01:27:01;33.82;30.53;42.18;;
76382;Laerm;65202;52.520;10.528;2023-11-18T01:29:29;33.98;30.53;42.73;;
76382;Laerm;65202;52.520;10.528;2023-11-18T01:31:56;33.96;30.49;42.19;;
76382;Laerm;65202;52.520;10.528;2023-11-18T01:34:24;34.00;30.56;42.20;;
76382;Laerm;65202;52.520;10.528;2023-11-18T01:36:51;33.81;30.44;42.47;;
76382;Laerm;65202;52.520;10.528;2023-11-18T01:39:18;34.05;30.48;43.78;;
76382;Laerm;65202;52.520;10.528;2023-11-18T01:41:46;33.98;30.45;42.01;;
76382;Laerm;65202;52.520;10.528;2023-11-18T01:44:13;33.89;30.46;44.00;;
76382;Laerm;65202;52.520;10.528;2023-11-18T01:46:42;34.62;30.50;42.72;;
76382;Laerm;65202;52.520;10.528;2023-11-18T01:49:13;36.63;30.70;48.53;;
76382;Laerm;65202;52.520;10.528;2023-11-18T01:51:44;36.37;31.07;44.38;;
76382;Laerm;65202;52.520;10.528;2023-11-18T01:54:13;34.06;30.63;42.68;;
76382;Laerm;65202;52.520;10.528;2023-11-18T01:56:48;34.05;30.33;42.62;;
76382;Laerm;65202;52.520;10.528;2023-11-18T01:59:16;33.91;30.63;42.34;;
76382;Laerm;65202;52.520;10.528;2023-11-18T02:01:51;34.48;30.59;44.18;;
76382;Laerm;65202;52.520;10.528;2023-11-18T02:04:21;34.19;30.71;42.89;;
76382;Laerm;65202;52.520;10.528;2023-11-18T02:06:49;33.94;30.62;42.30;;
76382;Laerm;65202;52.520;10.528;2023-11-18T02:09:19;34.92;30.79;44.45;;
76382;Laerm;65202;52.520;10.528;2023-11-18T02:12:12;33.94;30.33;42.15;;
76382;Laerm;65202;52.520;10.528;2023-11-18T02:14:44;33.80;30.58;42.01;;
76382;Laerm;65202;52.520;10.528;2023-11-18T02:17:17;33.81;30.36;42.44;;
76382;Laerm;65202;52.520;10.528;2023-11-18T02:19:45;33.99;30.70;42.16;;
76382;Laerm;65202;52.520;10.528;2023-11-18T02:22:13;37.11;30.63;53.21;;
76382;Laerm;65202;52.520;10.528;2023-11-18T02:24:40;33.99;30.39;43.33;;
76382;Laerm;65202;52.520;10.528;2023-11-18T02:27:08;33.89;30.32;42.40;;
76382;Laerm;65202;52.520;10.528;2023-11-18T02:29:42;34.01;30.23;42.35;;
76382;Laerm;65202;52.520;10.528;2023-11-18T02:32:25;34.15;30.68;44.60;;
76382;Laerm;65202;52.520;10.528;2023-11-18T02:35:16;37.26;31.19;44.91;;
76382;Laerm;65202;52.520;10.528;2023-11-18T02:37:49;34.31;30.80;54.26;;
76382;Laerm;65202;52.520;10.528;2023-11-18T02:40:27;33.88;30.57;42.28;;
76382;Laerm;65202;52.520;10.528;2023-11-18T02:42:59;33.85;30.35;42.35;;
76382;Laerm;65202;52.520;10.528;2023-11-18T02:45:28;33.89;30.16;43.05;;
76382;Laerm;65202;52.520;10.528;2023-11-18T02:47:55;33.81;30.45;43.23;;
76382;Laerm;65202;52.520;10.528;2023-11-18T02:50:25;33.84;30.43;42.02;;
76382;Laerm;65202;52.520;10.528;2023-11-18T02:52:54;33.75;30.35;42.26;;
76382;Laerm;65202;52.520;10.528;2023-11-18T02:55:22;33.71;30.48;42.50;;
76382;Laerm;65202;52.520;10.528;2023-11-18T02:57:50;33.78;30.39;41.46;;
76382;Laerm;65202;52.520;10.528;2023-11-18T03:00:19;34.22;30.38;43.41;;
76382;Laerm;65202;52.520;10.528;2023-11-18T03:02:50;33.75;30.56;42.34;;
76382;Laerm;65202;52.520;10.528;2023-11-18T03:05:20;34.00;30.63;44.90;;
76382;Laerm;65202;52.520;10.528;2023-11-18T03:07:48;34.11;30.64;42.10;;
76382;Laerm;65202;52.520;10.528;2023-11-18T03:10:21;34.49;31.02;44.85;;
76382;Laerm;65202;52.520;10.528;2023-11-18T03:12:53;34.14;30.96;43.13;;
76382;Laerm;65202;52.520;10.528;2023-11-18T03:15:22;36.39;31.55;44.28;;
76382;Laerm;65202;52.520;10.528;2023-11-18T03:17:51;37.47;31.19;44.72;;
76382;Laerm;65202;52.520;10.528;2023-11-18T03:20:21;35.78;31.51;44.99;;
76382;Laerm;65202;52.520;10.528;2023-11-18T03:22:50;34.34;31.05;43.29;;
76382;Laerm;65202;52.520;10.528;2023-11-18T03:25:19;35.02;31.31;41.28;;
76382;Laerm;65202;52.520;10.528;2023-11-18T03:27:48;35.20;31.49;41.92;;
76382;Laerm;65202;52.520;10.528;2023-11-18T03:30:15;35.23;30.97;48.52;;
76382;Laerm;65202;52.520;10.528;2023-11-18T03:32:44;38.62;30.99;58.24;;
76382;Laerm;65202;52.520;10.528;2023-11-18T03:35:12;34.21;30.83;45.30;;
76382;Laerm;65202;52.520;10.528;2023-11-18T03:37:41;34.36;30.99;41.26;;
76382;Laerm;65202;52.520;10.528;2023-11-18T03:40:14;34.16;30.41;45.45;;
76382;Laerm;65202;52.520;10.528;2023-11-18T03:42:42;34.42;30.58;50.86;;
76382;Laerm;65202;52.520;10.528;2023-11-18T03:45:10;34.68;31.00;50.19;;
76382;Laerm;65202;52.520;10.528;2023-11-18T03:47:37;34.27;30.75;47.52;;
76382;Laerm;65202;52.520;10.528;2023-11-18T03:50:05;34.08;30.58;43.98;;
76382;Laerm;65202;52.520;10.528;2023-11-18T03:52:36;35.82;30.50;59.41;;
76382;Laerm;65202;52.520;10.528;2023-11-18T03:55:05;37.99;30.74;64.60;;
76382;Laerm;65202;52.520;10.528;2023-11-18T03:57:33;38.04;30.65;49.68;;
76382;Laerm;65202;52.520;10.528;2023-11-18T04:00:01;38.91;31.69;66.50;;
76382;Laerm;65202;52.520;10.528;2023-11-18T04:02:28;35.32;30.88;47.11;;
76382;Laerm;65202;52.520;10.528;2023-11-18T04:04:56;36.10;30.96;63.96;;
76382;Laerm;65202;52.520;10.528;2023-11-18T04:07:23;37.84;30.80;49.14;;
76382;Laerm;65202;52.520;10.528;2023-11-18T04:09:50;35.20;31.10;42.09;;
76382;Laerm;65202;52.520;10.528;2023-11-18T04:12:18;34.91;30.78;43.90;;
76382;Laerm;65202;52.520;10.528;2023-11-18T04:14:45;44.31;31.18;57.06;;
76382;Laerm;65202;52.520;10.528;2023-11-18T04:17:12;34.39;30.88;42.12;;
76382;Laerm;65202;52.520;10.528;2023-11-18T04:19:40;34.24;30.65;42.63;;
76382;Laerm;65202;52.520;10.528;2023-11-18T04:22:07;34.16;30.90;41.55;;
76382;Laerm;65202;52.520;10.528;2023-11-18T04:24:35;34.72;31.14;42.33;;
76382;Laerm;65202;52.520;10.528;2023-11-18T04:27:02;34.45;30.96;42.21;;
76382;Laerm;65202;52.520;10.528;2023-11-18T04:29:29;34.52;31.17;45.43;;
76382;Laerm;65202;52.520;10.528;2023-11-18T04:31:57;34.51;30.98;46.67;;
76382;Laerm;65202;52.520;10.528;2023-11-18T04:34:26;35.20;31.03;41.88;;
76382;Laerm;65202;52.520;10.528;2023-11-18T04:36:54;34.60;30.85;48.93;;
76382;Laerm;65202;52.520;10.528;2023-11-18T04:39:21;34.82;30.98;43.61;;
76382;Laerm;65202;52.520;10.528;2023-11-18T04:41:49;37.17;31.04;45.76;;
76382;Laerm;65202;52.520;10.528;2023-11-18T04:44:17;35.97;31.38;48.43;;
76382;Laerm;65202;52.520;10.528;2023-11-18T04:46:44;34.56;30.93;42.29;;
76382;Laerm;65202;52.520;10.528;2023-11-18T04:49:12;35.37;31.35;41.31;;
76382;Laerm;65202;52.520;10.528;2023-11-18T04:51:39;34.96;31.28;45.80;;
76382;Laerm;65202;52.520;10.528;2023-11-18T04:54:07;35.22;31.14;42.59;;
76382;Laerm;65202;52.520;10.528;2023-11-18T04:56:37;43.58;33.84;59.03;;
76382;Laerm;65202;52.520;10.528;2023-11-18T04:59:05;34.49;31.09;41.87;;
76382;Laerm;65202;52.520;10.528;2023-11-18T05:01:33;34.12;30.70;41.87;;
76382;Laerm;65202;52.520;10.528;2023-11-18T05:04:00;34.84;31.07;46.95;;
76382;Laerm;65202;52.520;10.528;2023-11-18T05:06:28;35.07;31.63;42.57;;
76382;Laerm;65202;52.520;10.528;2023-11-18T05:08:55;36.26;32.25;42.48;;
76382;Laerm;65202;52.520;10.528;2023-11-18T05:11:22;35.26;30.89;43.04;;
76382;Laerm;65202;52.520;10.528;2023-11-18T05:13:49;35.82;31.77;42.54;;
76382;Laerm;65202;52.520;10.528;2023-11-18T05:16:17;34.40;30.70;42.54;;
76382;Laerm;65202;52.520;10.528;2023-11-18T05:18:44;34.63;31.17;43.17;;
76382;Laerm;65202;52.520;10.528;2023-11-18T05:21:12;35.25;31.48;41.84;;
76382;Laerm;65202;52.520;10.528;2023-11-18T05:23:39;34.77;31.33;41.36;;
76382;Laerm;65202;52.520;10.528;2023-11-18T05:26:06;38.32;31.83;47.89;;
76382;Laerm;65202;52.520;10.528;2023-11-18T05:28:34;35.61;31.23;43.79;;
76382;Laerm;65202;52.520;10.528;2023-11-18T05:31:01;35.28;31.44;41.29;;
76382;Laerm;65202;52.520;10.528;2023-11-18T05:33:30;36.55;31.78;45.65;;
76382;Laerm;65202;52.520;10.528;2023-11-18T05:35:58;35.64;31.41;45.75;;
76382;Laerm;65202;52.520;10.528;2023-11-18T05:38:25;47.09;32.45;65.11;;
76382;Laerm;65202;52.520;10.528;2023-11-18T05:40:55;36.90;32.32;50.95;;
76382;Laerm;65202;52.520;10.528;2023-11-18T05:43:29;49.11;32.44;68.53;;
76382;Laerm;65202;52.520;10.528;2023-11-18T05:46:04;35.95;31.72;40.58;;
76382;Laerm;65202;52.520;10.528;2023-11-18T05:48:52;36.83;31.82;52.74;;
76382;Laerm;65202;52.520;10.528;2023-11-18T05:51:23;36.38;31.88;53.04;;
76382;Laerm;65202;52.520;10.528;2023-11-18T05:53:51;35.90;31.89;47.46;;
76382;Laerm;65202;52.520;10.528;2023-11-18T05:56:20;36.56;31.52;56.52;;
76382;Laerm;65202;52.520;10.528;2023-11-18T05:58:51;39.84;31.99;57.79;;
76382;Laerm;65202;52.520;10.528;2023-11-18T06:01:21;37.08;31.33;56.78;;
76382;Laerm;65202;52.520;10.528;2023-11-18T06:03:48;39.79;32.46;61.15;;
76382;Laerm;65202;52.520;10.528;2023-11-18T06:06:16;37.96;31.81;48.44;;
76382;Laerm;65202;52.520;10.528;2023-11-18T06:08:50;36.46;31.85;44.97;;
76382;Laerm;65202;52.520;10.528;2023-11-18T06:11:17;38.41;32.66;45.62;;
76382;Laerm;65202;52.520;10.528;2023-11-18T06:13:48;41.36;33.91;54.49;;
76382;Laerm;65202;52.520;10.528;2023-11-18T06:16:21;36.96;32.14;47.62;;
76382;Laerm;65202;52.520;10.528;2023-11-18T06:18:55;35.59;31.80;43.35;;
76382;Laerm;65202;52.520;10.528;2023-11-18T06:21:25;40.52;32.54;61.17;;
76382;Laerm;65202;52.520;10.528;2023-11-18T06:23:56;36.22;32.14;41.28;;
76382;Laerm;65202;52.520;10.528;2023-11-18T06:26:24;42.78;32.52;58.67;;
76382;Laerm;65202;52.520;10.528;2023-11-18T06:28:55;37.06;33.30;43.78;;
76382;Laerm;65202;52.520;10.528;2023-11-18T06:31:23;38.68;34.93;50.37;;
76382;Laerm;65202;52.520;10.528;2023-11-18T06:33:51;42.55;33.62;55.97;;
76382;Laerm;65202;52.520;10.528;2023-11-18T06:36:20;40.47;32.55;57.66;;
76382;Laerm;65202;52.520;10.528;2023-11-18T06:38:51;39.15;33.12;54.45;;
76382;Laerm;65202;52.520;10.528;2023-11-18T06:41:22;41.55;33.10;60.93;;
76382;Laerm;65202;52.520;10.528;2023-11-18T06:44:00;46.69;34.01;63.78;;
76382;Laerm;65202;52.520;10.528;2023-11-18T06:46:36;39.44;33.80;50.44;;
76382;Laerm;65202;52.520;10.528;2023-11-18T06:49:07;38.83;33.55;50.34;;
76382;Laerm;65202;52.520;10.528;2023-11-18T06:51:35;39.36;34.37;49.44;;
76382;Laerm;65202;52.520;10.528;2023-11-18T06:54:05;41.21;35.32;51.95;;
76382;Laerm;65202;52.520;10.528;2023-11-18T06:56:40;46.02;35.34;60.65;;
76382;Laerm;65202;52.520;10.528;2023-11-18T06:59:13;38.85;33.85;49.57;;
76382;Laerm;65202;52.520;10.528;2023-11-18T07:01:43;37.40;34.12;46.12;;
76382;Laerm;65202;52.520;10.528;2023-11-18T07:04:11;42.70;33.64;61.38;;
76382;Laerm;65202;52.520;10.528;2023-11-18T07:06:39;50.06;34.12;69.17;;
76382;Laerm;65202;52.520;10.528;2023-11-18T07:09:07;39.36;33.97;50.74;;
76382;Laerm;65202;52.520;10.528;2023-11-18T07:11:45;40.79;35.31;54.00;;
76382;Laerm;65202;52.520;10.528;2023-11-18T07:14:14;47.02;35.69;64.85;;
76382;Laerm;65202;52.520;10.528;2023-11-18T07:16:44;41.29;35.64;52.95;;
76382;Laerm;65202;52.520;10.528;2023-11-18T07:19:12;39.95;34.81;58.36;;
76382;Laerm;65202;52.520;10.528;2023-11-18T07:21:49;46.22;36.95;69.65;;
76382;Laerm;65202;52.520;10.528;2023-11-18T07:24:17;40.16;35.46;53.30;;
76382;Laerm;65202;52.520;10.528;2023-11-18T07:26:45;39.67;35.01;47.05;;
76382;Laerm;65202;52.520;10.528;2023-11-18T07:29:13;38.83;34.38;54.30;;
76382;Laerm;65202;52.520;10.528;2023-11-18T07:31:40;40.59;35.02;56.11;;
76382;Laerm;65202;52.520;10.528;2023-11-18T07:34:07;41.42;34.16;51.60;;
76382;Laerm;65202;52.520;10.528;2023-11-18T07:36:35;41.87;35.34;52.50;;
76382;Laerm;65202;52.520;10.528;2023-11-18T07:39:02;51.01;35.24;69.98;;
76382;Laerm;65202;52.520;10.528;2023-11-18T07:41:33;44.75;35.05;62.95;;
76382;Laerm;65202;52.520;10.528;2023-11-18T07:44:00;43.04;35.47;51.33;;
76382;Laerm;65202;52.520;10.528;2023-11-18T07:46:28;48.03;36.27;64.05;;
76382;Laerm;65202;52.520;10.528;2023-11-18T07:48:58;48.62;36.24;65.76;;
76382;Laerm;65202;52.520;10.528;2023-11-18T07:51:28;45.97;37.00;62.94;;
76382;Laerm;65202;52.520;10.528;2023-11-18T07:53:56;47.22;35.45;65.84;;
76382;Laerm;65202;52.520;10.528;2023-11-18T07:56:23;39.81;35.49;54.06;;
76382;Laerm;65202;52.520;10.528;2023-11-18T07:58:50;41.91;36.41;54.82;;
76382;Laerm;65202;52.520;10.528;2023-11-18T08:01:20;41.78;36.59;50.95;;
76382;Laerm;65202;52.520;10.528;2023-11-18T08:03:48;41.61;36.58;59.03;;
76382;Laerm;65202;52.520;10.528;2023-11-18T08:06:18;45.34;36.34;63.32;;
76382;Laerm;65202;52.520;10.528;2023-11-18T08:08:45;40.05;35.80;53.90;;
76382;Laerm;65202;52.520;10.528;2023-11-18T08:11:15;42.43;36.69;57.47;;
76382;Laerm;65202;52.520;10.528;2023-11-18T08:13:42;40.07;37.07;47.85;;
76382;Laerm;65202;52.520;10.528;2023-11-18T08:16:11;47.91;38.16;64.94;;
76382;Laerm;65202;52.520;10.528;2023-11-18T08:18:40;45.34;36.87;65.40;;
76382;Laerm;65202;52.520;10.528;2023-11-18T08:21:07;49.42;40.66;66.63;;
76382;Laerm;65202;52.520;10.528;2023-11-18T08:23:35;44.07;39.93;61.59;;
76382;Laerm;65202;52.520;10.528;2023-11-18T08:26:03;47.30;35.79;62.71;;
76382;Laerm;65202;52.520;10.528;2023-11-18T08:28:33;48.62;37.06;65.13;;
76382;Laerm;65202;52.520;10.528;2023-11-18T08:31:00;43.93;37.21;61.56;;
76382;Laerm;65202;52.520;10.528;2023-11-18T08:33:28;43.68;36.01;60.44;;
76382;Laerm;65202;52.520;10.528;2023-11-18T08:35:56;43.86;36.39;65.54;;
76382;Laerm;65202;52.520;10.528;2023-11-18T08:38:24;40.63;35.42;51.57;;
76382;Laerm;65202;52.520;10.528;2023-11-18T08:40:51;40.27;35.75;54.07;;
76382;Laerm;65202;52.520;10.528;2023-11-18T08:43:20;39.79;36.31;49.24;;
76382;Laerm;65202;52.520;10.528;2023-11-18T08:45:48;48.66;36.51;71.52;;
76382;Laerm;65202;52.520;10.528;2023-11-18T08:48:17;45.28;35.75;72.39;;
76382;Laerm;65202;52.520;10.528;2023-11-18T08:50:45;43.70;36.07;63.66;;
76382;Laerm;65202;52.520;10.528;2023-11-18T08:53:14;45.71;37.81;62.27;;
76382;Laerm;65202;52.520;10.528;2023-11-18T08:55:45;46.84;37.97;70.40;;
76382;Laerm;65202;52.520;10.528;2023-11-18T08:58:18;49.05;36.54;76.54;;
76382;Laerm;65202;52.520;10.528;2023-11-18T09:00:52;46.54;36.44;63.79;;
76382;Laerm;65202;52.520;10.528;2023-11-18T09:03:25;43.23;37.43;63.31;;
76382;Laerm;65202;52.520;10.528;2023-11-18T09:05:58;42.68;37.82;62.82;;
76382;Laerm;65202;52.520;10.528;2023-11-18T09:08:29;48.53;38.05;71.87;;
76382;Laerm;65202;52.520;10.528;2023-11-18T09:10:59;44.73;37.85;61.88;;
76382;Laerm;65202;52.520;10.528;2023-11-18T09:13:27;45.65;39.87;57.91;;
76382;Laerm;65202;52.520;10.528;2023-11-18T09:15:59;52.47;41.27;64.38;;
76382;Laerm;65202;52.520;10.528;2023-11-18T09:18:30;47.65;39.67;64.24;;
76382;Laerm;65202;52.520;10.528;2023-11-18T09:21:01;42.53;38.02;50.73;;
76382;Laerm;65202;52.520;10.528;2023-11-18T09:23:31;44.06;38.48;58.15;;
76382;Laerm;65202;52.520;10.528;2023-11-18T09:26:05;42.13;38.31;52.98;;
76382;Laerm;65202;52.520;10.528;2023-11-18T09:28:36;45.64;39.19;60.59;;
76382;Laerm;65202;52.520;10.528;2023-11-18T09:31:05;52.05;39.24;71.26;;
76382;Laerm;65202;52.520;10.528;2023-11-18T09:33:33;45.44;38.10;60.67;;
76382;Laerm;65202;52.520;10.528;2023-11-18T09:36:05;44.58;37.77;57.58;;
76382;Laerm;65202;52.520;10.528;2023-11-18T09:38:36;47.62;38.02;64.65;;
76382;Laerm;65202;52.520;10.528;2023-11-18T09:41:05;41.50;36.74;53.40;;
76382;Laerm;65202;52.520;10.528;2023-11-18T09:43:40;42.88;38.03;55.47;;
76382;Laerm;65202;52.520;10.528;2023-11-18T09:46:23;41.34;38.31;56.20;;
76382;Laerm;65202;52.520;10.528;2023-11-18T09:48:57;43.00;38.70;59.87;;
76382;Laerm;65202;52.520;10.528;2023-11-18T09:51:38;43.68;37.88;55.08;;
76382;Laerm;65202;52.520;10.528;2023-11-18T09:54:19;44.26;38.21;55.38;;
76382;Laerm;65202;52.520;10.528;2023-11-18T09:57:14;49.98;38.50;63.91;;
76382;Laerm;65202;52.520;10.528;2023-11-18T09:59:59;50.72;38.12;68.59;;
76382;Laerm;65202;52.520;10.528;2023-11-18T10:02:40;45.05;36.68;59.78;;
76382;Laerm;65202;52.520;10.528;2023-11-18T10:05:09;40.92;37.26;49.24;;
76382;Laerm;65202;52.520;10.528;2023-11-18T10:07:44;47.32;37.61;65.09;;
76382;Laerm;65202;52.520;10.528;2023-11-18T10:10:15;40.75;37.01;48.89;;
76382;Laerm;65202;52.520;10.528;2023-11-18T10:12:47;47.44;37.00;65.32;;
76382;Laerm;65202;52.520;10.528;2023-11-18T10:15:25;41.58;36.47;50.62;;
76382;Laerm;65202;52.520;10.528;2023-11-18T10:17:54;48.74;37.27;66.94;;
76382;Laerm;65202;52.520;10.528;2023-11-18T10:20:46;48.30;36.66;68.55;;
76382;Laerm;65202;52.520;10.528;2023-11-18T10:23:15;50.87;36.59;69.36;;
76382;Laerm;65202;52.520;10.528;2023-11-18T10:25:54;47.63;34.66;66.23;;
76382;Laerm;65202;52.520;10.528;2023-11-18T10:28:31;41.98;34.79;58.46;;
76382;Laerm;65202;52.520;10.528;2023-11-18T10:31:07;40.25;34.88;55.90;;
76382;Laerm;65202;52.520;10.528;2023-11-18T10:33:38;44.53;34.28;74.26;;
76382;Laerm;65202;52.520;10.528;2023-11-18T10:36:22;47.21;37.67;65.66;;
76382;Laerm;65202;52.520;10.528;2023-11-18T10:38:52;50.26;36.22;66.02;;
76382;Laerm;65202;52.520;10.528;2023-11-18T10:41:23;48.30;36.06;68.14;;
76382;Laerm;65202;52.520;10.528;2023-11-18T10:44:06;50.92;36.73;66.47;;
76382;Laerm;65202;52.520;10.528;2023-11-18T10:46:51;49.73;36.19;65.65;;
76382;Laerm;65202;52.520;10.528;2023-11-18T10:49:20;43.39;37.32;64.10;;
76382;Laerm;65202;52.520;10.528;2023-11-18T10:51:51;48.20;36.10;64.29;;
76382;Laerm;65202;52.520;10.528;2023-11-18T10:54:18;44.13;36.85;66.11;;
76382;Laerm;65202;52.520;10.528;2023-11-18T10:56:50;52.12;38.09;70.94;;
76382;Laerm;65202;52.520;10.528;2023-11-18T10:59:17;50.40;37.13;65.90;;
76382;Laerm;65202;52.520;10.528;2023-11-18T11:01:45;41.82;36.49;57.42;;
76382;Laerm;65202;52.520;10.528;2023-11-18T11:04:16;40.58;36.51;54.77;;
76382;Laerm;65202;52.520;10.528;2023-11-18T11:06:50;42.15;36.34;57.86;;
76382;Laerm;65202;52.520;10.528;2023-11-18T11:09:23;45.96;36.02;74.02;;
76382;Laerm;65202;52.520;10.528;2023-11-18T11:12:10;46.75;35.79;67.81;;
76382;Laerm;65202;52.520;10.528;2023-11-18T11:15:01;50.21;36.39;67.84;;
76382;Laerm;65202;52.520;10.528;2023-11-18T11:17:33;44.02;36.71;58.69;;
76382;Laerm;65202;52.520;10.528;2023-11-18T11:20:08;44.32;36.62;59.15;;
76382;Laerm;65202;52.520;10.528;2023-11-18T11:23:00;39.90;35.57;53.95;;
76382;Laerm;65202;52.520;10.528;2023-11-18T11:28:41;49.26;35.02;65.79;;
76382;Laerm;65202;52.520;10.528;2023-11-18T11:31:21;41.65;36.75;62.18;;
76382;Laerm;65202;52.520;10.528;2023-11-18T11:33:59;42.14;37.04;62.18;;
76382;Laerm;65202;52.520;10.528;2023-11-18T11:36:47;47.24;37.07;66.00;;
76382;Laerm;65202;52.520;10.528;2023-11-18T11:39:18;43.29;34.95;58.52;;
76382;Laerm;65202;52.520;10.528;2023-11-18T11:41:53;52.31;35.24;69.34;;
76382;Laerm;65202;52.520;10.528;2023-11-18T11:44:23;48.14;35.03;67.18;;
76382;Laerm;65202;52.520;10.528;2023-11-18T11:46:59;47.34;35.76;64.10;;
76382;Laerm;65202;52.520;10.528;2023-11-18T11:49:41;43.53;35.93;59.51;;
76382;Laerm;65202;52.520;10.528;2023-11-18T11:52:46;43.21;37.39;58.32;;
76382;Laerm;65202;52.520;10.528;2023-11-18T11:55:29;42.51;36.79;60.10;;
76382;Laerm;65202;52.520;10.528;2023-11-18T11:58:00;42.40;36.53;52.17;;
76382;Laerm;65202;52.520;10.528;2023-11-18T12:00:28;40.86;36.13;52.53;;
76382;Laerm;65202;52.520;10.528;2023-11-18T12:03:02;40.11;35.91;51.48;;
76382;Laerm;65202;52.520;10.528;2023-11-18T12:05:32;46.97;36.29;64.13;;
76382;Laerm;65202;52.520;10.528;2023-11-18T12:08:01;41.09;35.87;59.59;;
76382;Laerm;65202;52.520;10.528;2023-11-18T12:10:31;45.82;36.11;65.33;;
76382;Laerm;65202;52.520;10.528;2023-11-18T12:13:09;46.46;36.13;65.47;;
76382;Laerm;65202;52.520;10.528;2023-11-18T12:15:53;46.87;35.59;63.87;;
76382;Laerm;65202;52.520;10.528;2023-11-18T12:18:23;44.86;36.58;61.68;;
76382;Laerm;65202;52.520;10.528;2023-11-18T12:20:51;43.06;36.35;57.08;;
76382;Laerm;65202;52.520;10.528;2023-11-18T12:23:24;44.40;36.36;69.11;;
76382;Laerm;65202;52.520;10.528;2023-11-18T12:25:54;48.57;36.44;66.26;;
76382;Laerm;65202;52.520;10.528;2023-11-18T12:28:32;48.49;36.47;67.97;;
76382;Laerm;65202;52.520;10.528;2023-11-18T12:31:03;44.42;36.82;64.25;;
76382;Laerm;65202;52.520;10.528;2023-11-18T12:43:03;57.39;36.18;82.53;;
76382;Laerm;65202;52.520;10.528;2023-11-18T12:45:56;52.34;37.54;67.80;;
76382;Laerm;65202;52.520;10.528;2023-11-18T12:48:35;48.25;37.83;65.86;;
76382;Laerm;65202;52.520;10.528;2023-11-18T12:51:07;45.43;37.10;59.45;;
76382;Laerm;65202;52.520;10.528;2023-11-18T12:53:38;49.54;37.43;65.94;;
76382;Laerm;65202;52.520;10.528;2023-11-18T12:56:06;46.59;38.20;62.00;;
76382;Laerm;65202;52.520;10.528;2023-11-18T12:58:33;42.83;37.37;57.73;;
76382;Laerm;65202;52.520;10.528;2023-11-18T13:01:00;49.73;38.33;68.29;;
76382;Laerm;65202;52.520;10.528;2023-11-18T13:03:30;47.96;37.80;65.08;;
76382;Laerm;65202;52.520;10.528;2023-11-18T13:05:57;46.58;37.84;61.24;;
76382;Laerm;65202;52.520;10.528;2023-11-18T13:08:24;41.15;37.57;52.17;;
76382;Laerm;65202;52.520;10.528;2023-11-18T13:10:53;40.92;37.57;55.37;;
76382;Laerm;65202;52.520;10.528;2023-11-18T13:13:22;56.66;36.76;80.97;;
76382;Laerm;65202;52.520;10.528;2023-11-18T13:15:49;40.48;36.80;56.51;;
76382;Laerm;65202;52.520;10.528;2023-11-18T13:18:17;44.45;37.93;63.69;;
76382;Laerm;65202;52.520;10.528;2023-11-18T13:20:57;41.55;37.90;54.41;;
76382;Laerm;65202;52.520;10.528;2023-11-18T13:23:25;41.53;37.31;53.67;;
76382;Laerm;65202;52.520;10.528;2023-11-18T13:25:57;46.30;37.25;63.10;;
76382;Laerm;65202;52.520;10.528;2023-11-18T13:28:27;46.79;38.07;71.77;;
76382;Laerm;65202;52.520;10.528;2023-11-18T13:30:55;41.92;38.12;54.55;;
76382;Laerm;65202;52.520;10.528;2023-11-18T13:33:23;43.25;37.97;52.04;;
76382;Laerm;65202;52.520;10.528;2023-11-18T13:35:50;50.06;38.19;66.41;;
76382;Laerm;65202;52.520;10.528;2023-11-18T13:38:18;42.58;37.49;60.57;;
76382;Laerm;65202;52.520;10.528;2023-11-18T13:40:47;41.34;37.63;55.92;;
76382;Laerm;65202;52.520;10.528;2023-11-18T13:43:15;43.60;37.22;61.83;;
76382;Laerm;65202;52.520;10.528;2023-11-18T13:45:42;48.74;37.56;65.10;;
76382;Laerm;65202;52.520;10.528;2023-11-18T13:48:11;46.89;36.86;67.93;;
76382;Laerm;65202;52.520;10.528;2023-11-18T13:50:42;44.22;38.22;63.29;;
76382;Laerm;65202;52.520;10.528;2023-11-18T13:53:10;43.11;39.11;54.01;;
76382;Laerm;65202;52.520;10.528;2023-11-18T13:55:38;47.90;37.24;63.95;;
76382;Laerm;65202;52.520;10.528;2023-11-18T13:58:06;49.88;36.49;66.58;;
76382;Laerm;65202;52.520;10.528;2023-11-18T14:00:34;45.43;38.83;56.29;;
76382;Laerm;65202;52.520;10.528;2023-11-18T14:03:01;47.26;38.95;70.34;;